Hollandale, Minnesota
Current Conditions -  °F | °C
As of 9:01 AM on Monday 24 Nov 2014 (Local Time) from KAEL Reporting Station
Overcast Overcast  
Wind Chill:   Ceiling: 1200
Heat Index: 19°   Visibility: NA
Dew Point: 16°   Wind: 14mph
Humidity: 86%   Direction: 300°WNW
Pressure: 29.42"   Gusts: 30mph
Location:  43.76°N, 93.2°W
Report Text: KAEL 241501Z AUTO 30012G26KT OVC012 M07/M09 A2942 RMK AO2
Loading
Personal Weather Stations






























Interactive Weather Map New forecast layout! Learn more

10-Day Weather Forecast

Advertisements
Track Severe Weather on mobile